Terminal Aerodrome Forecast
Issued by NWS North Platte, NE

Home | Current Version | Previous Version | Text Only | Print | Product List | Glossary On
Versions: 1 2 3 4 5 6 7 8 9 10 11 12 13 14 15 16
000
FTUS43 KLBF 011100 RRA
TAFLBF
TAF
KLBF 011144Z 0112/0212 VRB04KT P6SM BKN120
     FM011500 34007KT P6SM SCT120 SCT250
     FM020000 03007KT P6SM VCTS BKN070CB OVC150 PROB30 0203/0209
      P6SM -TSRA BKN030CB
     FM020900 36010KT P6SM -SHRA OVC050=

USA.gov is the U.S. government's official web portal to all federal, state and local government web resources and services.